Terminal Aerodrome Forecast
Issued by NWS Jacksonville, FL

Home | Current Version | Previous Version | Text Only | Print | Product List | Glossary On
Versions: 1 2 3 4 5 6 7 8 9 10 11 12 13 14 15 16 17 18 19 20 21 22 23
801
FTUS42 KJAX 010524
TAFGNV
TAF
KGNV 010524Z 0106/0206 VRB02KT P6SM SCT050 SCT250
     FM010800 00000KT 5SM BR SCT040 SCT250
     FM011000 00000KT 2SM BR FEW040 SCT250
     FM011400 17007KT P6SM SCT050 SCT250
     FM012100 10008KT P6SM BKN050 BKN250
     FM020300 12003KT P6SM FEW050 SCT250=

USA.gov is the U.S. government's official web portal to all federal, state and local government web resources and services.